sensor_id;sensor_type;location;lat;lon;timestamp;P1;durP1;ratioP1;P2;durP2;ratioP2
45909;SDS011;31622;55.416;37.840;2023-11-22T00:00:32;2.60;;;1.60;;
45909;SDS011;31622;55.416;37.840;2023-11-22T00:02:57;2.78;;;1.42;;
45909;SDS011;31622;55.416;37.840;2023-11-22T00:05:23;1.95;;;1.35;;
45909;SDS011;31622;55.416;37.840;2023-11-22T00:07:49;2.30;;;1.52;;
45909;SDS011;31622;55.416;37.840;2023-11-22T00:10:15;2.70;;;1.50;;
45909;SDS011;31622;55.416;37.840;2023-11-22T00:12:40;2.85;;;1.58;;
45909;SDS011;31622;55.416;37.840;2023-11-22T00:15:06;2.42;;;1.27;;
45909;SDS011;31622;55.416;37.840;2023-11-22T00:17:33;2.75;;;1.48;;
45909;SDS011;31622;55.416;37.840;2023-11-22T00:19:59;2.17;;;1.50;;
45909;SDS011;31622;55.416;37.840;2023-11-22T00:22:33;2.70;;;1.63;;
45909;SDS011;31622;55.416;37.840;2023-11-22T00:24:59;3.50;;;1.52;;
45909;SDS011;31622;55.416;37.840;2023-11-22T00:27:29;3.05;;;1.40;;
45909;SDS011;31622;55.416;37.840;2023-11-22T00:29:57;3.00;;;1.40;;
45909;SDS011;31622;55.416;37.840;2023-11-22T00:32:23;2.00;;;1.40;;
45909;SDS011;31622;55.416;37.840;2023-11-22T00:34:51;2.38;;;1.52;;
45909;SDS011;31622;55.416;37.840;2023-11-22T00:37:17;2.45;;;1.25;;
45909;SDS011;31622;55.416;37.840;2023-11-22T00:39:43;2.10;;;1.30;;
45909;SDS011;31622;55.416;37.840;2023-11-22T00:42:08;2.50;;;1.30;;
45909;SDS011;31622;55.416;37.840;2023-11-22T00:44:34;3.15;;;1.60;;
45909;SDS011;31622;55.416;37.840;2023-11-22T00:47:01;2.50;;;1.63;;
45909;SDS011;31622;55.416;37.840;2023-11-22T00:49:27;2.25;;;1.60;;
45909;SDS011;31622;55.416;37.840;2023-11-22T00:51:53;2.90;;;1.80;;
45909;SDS011;31622;55.416;37.840;2023-11-22T00:54:19;2.33;;;1.48;;
45909;SDS011;31622;55.416;37.840;2023-11-22T00:56:47;2.83;;;1.73;;
45909;SDS011;31622;55.416;37.840;2023-11-22T00:59:13;3.13;;;1.90;;
45909;SDS011;31622;55.416;37.840;2023-11-22T01:01:40;2.42;;;1.38;;
45909;SDS011;31622;55.416;37.840;2023-11-22T01:04:06;2.45;;;1.50;;
45909;SDS011;31622;55.416;37.840;2023-11-22T01:06:33;2.60;;;1.63;;
45909;SDS011;31622;55.416;37.840;2023-11-22T01:08:59;2.60;;;1.50;;
45909;SDS011;31622;55.416;37.840;2023-11-22T01:11:25;2.67;;;1.92;;
45909;SDS011;31622;55.416;37.840;2023-11-22T01:13:51;3.83;;;1.50;;
45909;SDS011;31622;55.416;37.840;2023-11-22T01:16:17;2.20;;;1.40;;
45909;SDS011;31622;55.416;37.840;2023-11-22T01:18:43;2.38;;;1.48;;
45909;SDS011;31622;55.416;37.840;2023-11-22T01:21:11;2.38;;;1.33;;
45909;SDS011;31622;55.416;37.840;2023-11-22T01:23:37;2.20;;;1.50;;
45909;SDS011;31622;55.416;37.840;2023-11-22T01:26:03;1.98;;;1.35;;
45909;SDS011;31622;55.416;37.840;2023-11-22T01:28:29;3.50;;;1.48;;
45909;SDS011;31622;55.416;37.840;2023-11-22T01:30:59;2.75;;;1.60;;
45909;SDS011;31622;55.416;37.840;2023-11-22T01:33:29;3.17;;;1.50;;
45909;SDS011;31622;55.416;37.840;2023-11-22T01:35:57;2.88;;;1.40;;
45909;SDS011;31622;55.416;37.840;2023-11-22T01:38:22;3.13;;;1.80;;
45909;SDS011;31622;55.416;37.840;2023-11-22T01:40:51;2.53;;;1.67;;
45909;SDS011;31622;55.416;37.840;2023-11-22T01:43:17;2.80;;;1.70;;
45909;SDS011;31622;55.416;37.840;2023-11-22T01:45:43;4.03;;;1.40;;
45909;SDS011;31622;55.416;37.840;2023-11-22T01:48:10;3.10;;;1.50;;
45909;SDS011;31622;55.416;37.840;2023-11-22T01:50:37;3.00;;;1.58;;
45909;SDS011;31622;55.416;37.840;2023-11-22T01:53:05;3.17;;;1.80;;
45909;SDS011;31622;55.416;37.840;2023-11-22T01:55:34;3.05;;;1.67;;
45909;SDS011;31622;55.416;37.840;2023-11-22T01:58:00;4.35;;;1.73;;
45909;SDS011;31622;55.416;37.840;2023-11-22T02:00:27;4.63;;;1.50;;
45909;SDS011;31622;55.416;37.840;2023-11-22T02:02:58;6.15;;;2.38;;
45909;SDS011;31622;55.416;37.840;2023-11-22T02:05:25;3.08;;;1.60;;
45909;SDS011;31622;55.416;37.840;2023-11-22T02:07:51;4.40;;;2.00;;
45909;SDS011;31622;55.416;37.840;2023-11-22T02:10:17;3.60;;;2.05;;
45909;SDS011;31622;55.416;37.840;2023-11-22T02:12:43;4.63;;;2.25;;
45909;SDS011;31622;55.416;37.840;2023-11-22T02:15:09;3.58;;;2.15;;
45909;SDS011;31622;55.416;37.840;2023-11-22T02:17:35;2.70;;;1.85;;
45909;SDS011;31622;55.416;37.840;2023-11-22T02:20:01;5.15;;;2.28;;
45909;SDS011;31622;55.416;37.840;2023-11-22T02:22:31;5.18;;;2.33;;
45909;SDS011;31622;55.416;37.840;2023-11-22T02:24:57;4.25;;;2.25;;
45909;SDS011;31622;55.416;37.840;2023-11-22T02:27:24;5.30;;;2.35;;
45909;SDS011;31622;55.416;37.840;2023-11-22T02:29:50;3.45;;;2.28;;
45909;SDS011;31622;55.416;37.840;2023-11-22T02:32:16;3.30;;;2.38;;
45909;SDS011;31622;55.416;37.840;2023-11-22T02:34:41;3.30;;;2.15;;
45909;SDS011;31622;55.416;37.840;2023-11-22T02:37:07;6.20;;;2.42;;
45909;SDS011;31622;55.416;37.840;2023-11-22T02:42:29;4.00;;;2.30;;
45909;SDS011;31622;55.416;37.840;2023-11-22T02:44:55;3.75;;;2.03;;
45909;SDS011;31622;55.416;37.840;2023-11-22T02:47:22;3.78;;;2.10;;
45909;SDS011;31622;55.416;37.840;2023-11-22T02:49:47;4.90;;;2.25;;
45909;SDS011;31622;55.416;37.840;2023-11-22T02:52:14;5.88;;;2.13;;
45909;SDS011;31622;55.416;37.840;2023-11-22T02:54:43;5.78;;;2.55;;
45909;SDS011;31622;55.416;37.840;2023-11-22T02:57:11;3.40;;;2.10;;
45909;SDS011;31622;55.416;37.840;2023-11-22T02:59:40;4.75;;;1.92;;
45909;SDS011;31622;55.416;37.840;2023-11-22T03:02:07;2.75;;;1.92;;
45909;SDS011;31622;55.416;37.840;2023-11-22T03:04:32;4.13;;;1.90;;
45909;SDS011;31622;55.416;37.840;2023-11-22T03:06:59;4.22;;;2.10;;
45909;SDS011;31622;55.416;37.840;2023-11-22T03:09:25;3.00;;;1.90;;
45909;SDS011;31622;55.416;37.840;2023-11-22T03:11:51;4.28;;;2.05;;
45909;SDS011;31622;55.416;37.840;2023-11-22T03:14:18;3.28;;;2.00;;
45909;SDS011;31622;55.416;37.840;2023-11-22T03:16:44;3.42;;;1.73;;
45909;SDS011;31622;55.416;37.840;2023-11-22T03:19:10;4.18;;;1.95;;
45909;SDS011;31622;55.416;37.840;2023-11-22T03:21:38;3.53;;;1.98;;
45909;SDS011;31622;55.416;37.840;2023-11-22T03:24:07;3.42;;;1.90;;
45909;SDS011;31622;55.416;37.840;2023-11-22T03:26:34;8.88;;;2.00;;
45909;SDS011;31622;55.416;37.840;2023-11-22T03:29:00;3.42;;;1.83;;
45909;SDS011;31622;55.416;37.840;2023-11-22T03:31:26;3.35;;;2.10;;
45909;SDS011;31622;55.416;37.840;2023-11-22T03:33:53;3.30;;;1.90;;
45909;SDS011;31622;55.416;37.840;2023-11-22T03:36:20;3.83;;;1.80;;
45909;SDS011;31622;55.416;37.840;2023-11-22T03:38:48;2.08;;;1.40;;
45909;SDS011;31622;55.416;37.840;2023-11-22T03:41:14;2.80;;;1.90;;
45909;SDS011;31622;55.416;37.840;2023-11-22T03:43:40;3.00;;;1.95;;
45909;SDS011;31622;55.416;37.840;2023-11-22T03:46:06;4.30;;;1.80;;
45909;SDS011;31622;55.416;37.840;2023-11-22T03:48:31;3.45;;;1.80;;
45909;SDS011;31622;55.416;37.840;2023-11-22T03:50:59;2.65;;;1.80;;
45909;SDS011;31622;55.416;37.840;2023-11-22T03:53:25;2.83;;;1.67;;
45909;SDS011;31622;55.416;37.840;2023-11-22T03:55:52;3.42;;;1.80;;
45909;SDS011;31622;55.416;37.840;2023-11-22T03:58:18;3.13;;;1.80;;
45909;SDS011;31622;55.416;37.840;2023-11-22T04:00:44;3.05;;;1.92;;
45909;SDS011;31622;55.416;37.840;2023-11-22T04:03:09;2.75;;;1.60;;
45909;SDS011;31622;55.416;37.840;2023-11-22T04:05:35;3.65;;;1.60;;
45909;SDS011;31622;55.416;37.840;2023-11-22T04:08:01;3.03;;;1.75;;
45909;SDS011;31622;55.416;37.840;2023-11-22T04:10:26;4.22;;;1.55;;
45909;SDS011;31622;55.416;37.840;2023-11-22T04:12:52;2.40;;;1.50;;
45909;SDS011;31622;55.416;37.840;2023-11-22T04:15:18;2.95;;;1.70;;
45909;SDS011;31622;55.416;37.840;2023-11-22T04:17:44;2.45;;;1.33;;
45909;SDS011;31622;55.416;37.840;2023-11-22T04:20:10;2.60;;;1.52;;
45909;SDS011;31622;55.416;37.840;2023-11-22T04:22:38;2.60;;;1.58;;
45909;SDS011;31622;55.416;37.840;2023-11-22T04:25:05;2.60;;;1.70;;
45909;SDS011;31622;55.416;37.840;2023-11-22T04:27:32;3.22;;;1.70;;
45909;SDS011;31622;55.416;37.840;2023-11-22T04:29:58;3.28;;;1.88;;
45909;SDS011;31622;55.416;37.840;2023-11-22T04:32:24;3.67;;;1.42;;
45909;SDS011;31622;55.416;37.840;2023-11-22T04:34:49;3.03;;;1.60;;
45909;SDS011;31622;55.416;37.840;2023-11-22T04:37:15;2.30;;;1.50;;
45909;SDS011;31622;55.416;37.840;2023-11-22T04:39:41;2.30;;;1.40;;
45909;SDS011;31622;55.416;37.840;2023-11-22T04:42:06;3.08;;;1.50;;
45909;SDS011;31622;55.416;37.840;2023-11-22T04:44:32;2.38;;;1.30;;
45909;SDS011;31622;55.416;37.840;2023-11-22T04:46:58;2.47;;;1.60;;
45909;SDS011;31622;55.416;37.840;2023-11-22T04:49:27;2.67;;;1.50;;
45909;SDS011;31622;55.416;37.840;2023-11-22T04:51:52;3.78;;;1.70;;
45909;SDS011;31622;55.416;37.840;2023-11-22T04:54:18;2.67;;;1.38;;
45909;SDS011;31622;55.416;37.840;2023-11-22T04:56:44;2.70;;;1.63;;
45909;SDS011;31622;55.416;37.840;2023-11-22T04:59:09;3.35;;;1.70;;
45909;SDS011;31622;55.416;37.840;2023-11-22T05:01:35;3.60;;;1.48;;
45909;SDS011;31622;55.416;37.840;2023-11-22T05:04:01;4.65;;;2.03;;
45909;SDS011;31622;55.416;37.840;2023-11-22T05:06:27;4.05;;;1.98;;
45909;SDS011;31622;55.416;37.840;2023-11-22T05:08:54;4.78;;;1.92;;
45909;SDS011;31622;55.416;37.840;2023-11-22T05:11:20;4.18;;;1.90;;
45909;SDS011;31622;55.416;37.840;2023-11-22T05:13:46;3.58;;;1.75;;
45909;SDS011;31622;55.416;37.840;2023-11-22T05:16:12;4.47;;;2.10;;
45909;SDS011;31622;55.416;37.840;2023-11-22T05:18:38;3.95;;;2.30;;
45909;SDS011;31622;55.416;37.840;2023-11-22T05:21:04;3.70;;;1.58;;
45909;SDS011;31622;55.416;37.840;2023-11-22T05:23:30;4.22;;;1.83;;
45909;SDS011;31622;55.416;37.840;2023-11-22T05:25:59;3.17;;;1.90;;
45909;SDS011;31622;55.416;37.840;2023-11-22T05:28:27;4.35;;;1.85;;
45909;SDS011;31622;55.416;37.840;2023-11-22T05:30:53;3.55;;;1.50;;
45909;SDS011;31622;55.416;37.840;2023-11-22T05:33:18;3.20;;;1.60;;
45909;SDS011;31622;55.416;37.840;2023-11-22T05:35:44;5.05;;;2.13;;
45909;SDS011;31622;55.416;37.840;2023-11-22T05:38:10;4.32;;;1.73;;
45909;SDS011;31622;55.416;37.840;2023-11-22T05:40:36;3.42;;;1.77;;
45909;SDS011;31622;55.416;37.840;2023-11-22T05:43:01;4.68;;;1.80;;
45909;SDS011;31622;55.416;37.840;2023-11-22T05:45:27;3.60;;;1.63;;
45909;SDS011;31622;55.416;37.840;2023-11-22T05:47:53;3.65;;;1.67;;
45909;SDS011;31622;55.416;37.840;2023-11-22T05:50:18;3.17;;;1.75;;
45909;SDS011;31622;55.416;37.840;2023-11-22T05:52:44;3.10;;;1.73;;
45909;SDS011;31622;55.416;37.840;2023-11-22T05:55:11;2.60;;;1.65;;
45909;SDS011;31622;55.416;37.840;2023-11-22T05:57:42;3.63;;;1.65;;
45909;SDS011;31622;55.416;37.840;2023-11-22T06:00:08;4.28;;;1.85;;
45909;SDS011;31622;55.416;37.840;2023-11-22T06:02:34;3.85;;;1.80;;
45909;SDS011;31622;55.416;37.840;2023-11-22T06:05:00;3.55;;;1.48;;
45909;SDS011;31622;55.416;37.840;2023-11-22T06:07:26;3.08;;;1.77;;
45909;SDS011;31622;55.416;37.840;2023-11-22T06:09:52;2.67;;;1.48;;
45909;SDS011;31622;55.416;37.840;2023-11-22T06:12:18;2.17;;;1.30;;
45909;SDS011;31622;55.416;37.840;2023-11-22T06:14:46;3.25;;;1.60;;
45909;SDS011;31622;55.416;37.840;2023-11-22T06:17:12;3.20;;;1.65;;
45909;SDS011;31622;55.416;37.840;2023-11-22T06:19:39;3.13;;;2.05;;
45909;SDS011;31622;55.416;37.840;2023-11-22T06:22:06;2.85;;;1.42;;
45909;SDS011;31622;55.416;37.840;2023-11-22T06:24:32;2.10;;;1.40;;
45909;SDS011;31622;55.416;37.840;2023-11-22T06:27:01;2.90;;;1.40;;
45909;SDS011;31622;55.416;37.840;2023-11-22T06:29:28;2.38;;;1.48;;
45909;SDS011;31622;55.416;37.840;2023-11-22T06:31:54;2.40;;;1.30;;
45909;SDS011;31622;55.416;37.840;2023-11-22T06:34:20;2.55;;;1.52;;
45909;SDS011;31622;55.416;37.840;2023-11-22T06:36:45;2.47;;;1.30;;
45909;SDS011;31622;55.416;37.840;2023-11-22T06:39:11;2.30;;;1.40;;
45909;SDS011;31622;55.416;37.840;2023-11-22T06:41:41;2.30;;;1.30;;
45909;SDS011;31622;55.416;37.840;2023-11-22T06:44:07;1.98;;;1.17;;
45909;SDS011;31622;55.416;37.840;2023-11-22T06:46:33;1.92;;;1.38;;
45909;SDS011;31622;55.416;37.840;2023-11-22T06:48:58;1.90;;;1.20;;
45909;SDS011;31622;55.416;37.840;2023-11-22T06:51:24;2.17;;;1.15;;
45909;SDS011;31622;55.416;37.840;2023-11-22T06:53:50;2.20;;;1.02;;
45909;SDS011;31622;55.416;37.840;2023-11-22T06:56:19;2.05;;;1.25;;
45909;SDS011;31622;55.416;37.840;2023-11-22T06:58:45;1.90;;;1.02;;
45909;SDS011;31622;55.416;37.840;2023-11-22T07:01:11;3.22;;;1.35;;
45909;SDS011;31622;55.416;37.840;2023-11-22T07:03:37;2.58;;;1.20;;
45909;SDS011;31622;55.416;37.840;2023-11-22T07:06:05;2.13;;;1.27;;
45909;SDS011;31622;55.416;37.840;2023-11-22T07:08:31;1.50;;;0.90;;
45909;SDS011;31622;55.416;37.840;2023-11-22T07:10:57;3.00;;;1.20;;
45909;SDS011;31622;55.416;37.840;2023-11-22T07:13:22;3.97;;;1.35;;
45909;SDS011;31622;55.416;37.840;2023-11-22T07:15:49;3.85;;;1.27;;
45909;SDS011;31622;55.416;37.840;2023-11-22T07:18:16;1.90;;;1.08;;
45909;SDS011;31622;55.416;37.840;2023-11-22T07:20:42;2.40;;;1.20;;
45909;SDS011;31622;55.416;37.840;2023-11-22T07:23:08;2.88;;;1.13;;
45909;SDS011;31622;55.416;37.840;2023-11-22T07:25:38;1.63;;;0.98;;
45909;SDS011;31622;55.416;37.840;2023-11-22T07:28:04;2.05;;;1.00;;
45909;SDS011;31622;55.416;37.840;2023-11-22T07:30:30;2.03;;;1.23;;
45909;SDS011;31622;55.416;37.840;2023-11-22T07:32:58;2.30;;;1.30;;
45909;SDS011;31622;55.416;37.840;2023-11-22T07:35:24;3.42;;;1.40;;
45909;SDS011;31622;55.416;37.840;2023-11-22T07:37:53;2.05;;;1.05;;
45909;SDS011;31622;55.416;37.840;2023-11-22T07:40:19;2.15;;;1.25;;
45909;SDS011;31622;55.416;37.840;2023-11-22T07:42:48;2.40;;;1.20;;
45909;SDS011;31622;55.416;37.840;2023-11-22T07:45:14;2.10;;;1.05;;
45909;SDS011;31622;55.416;37.840;2023-11-22T07:47:41;2.33;;;1.20;;
45909;SDS011;31622;55.416;37.840;2023-11-22T07:50:08;1.77;;;1.20;;
45909;SDS011;31622;55.416;37.840;2023-11-22T07:52:36;4.00;;;1.60;;
45909;SDS011;31622;55.416;37.840;2023-11-22T07:55:04;8.32;;;2.58;;
45909;SDS011;31622;55.416;37.840;2023-11-22T07:57:33;10.68;;;3.50;;
45909;SDS011;31622;55.416;37.840;2023-11-22T07:59:59;9.70;;;3.55;;
45909;SDS011;31622;55.416;37.840;2023-11-22T08:02:26;11.60;;;3.35;;
45909;SDS011;31622;55.416;37.840;2023-11-22T08:04:52;7.28;;;3.08;;
45909;SDS011;31622;55.416;37.840;2023-11-22T08:07:18;8.60;;;3.20;;
45909;SDS011;31622;55.416;37.840;2023-11-22T08:09:44;11.38;;;3.45;;
45909;SDS011;31622;55.416;37.840;2023-11-22T08:12:10;12.05;;;3.80;;
45909;SDS011;31622;55.416;37.840;2023-11-22T08:14:38;13.40;;;4.20;;
45909;SDS011;31622;55.416;37.840;2023-11-22T08:17:05;15.13;;;4.20;;
45909;SDS011;31622;55.416;37.840;2023-11-22T08:19:31;15.43;;;5.30;;
45909;SDS011;31622;55.416;37.840;2023-11-22T08:21:57;20.75;;;6.63;;
45909;SDS011;31622;55.416;37.840;2023-11-22T08:24:23;17.80;;;7.22;;
45909;SDS011;31622;55.416;37.840;2023-11-22T08:26:49;17.48;;;7.43;;
45909;SDS011;31622;55.416;37.840;2023-11-22T08:29:15;19.20;;;8.32;;
45909;SDS011;31622;55.416;37.840;2023-11-22T08:31:41;19.70;;;8.25;;
45909;SDS011;31622;55.416;37.840;2023-11-22T08:34:07;25.42;;;9.02;;
45909;SDS011;31622;55.416;37.840;2023-11-22T08:36:32;20.52;;;9.80;;
45909;SDS011;31622;55.416;37.840;2023-11-22T08:39:00;17.27;;;9.30;;
45909;SDS011;31622;55.416;37.840;2023-11-22T08:41:27;21.83;;;9.70;;
45909;SDS011;31622;55.416;37.840;2023-11-22T08:43:55;18.27;;;9.65;;
45909;SDS011;31622;55.416;37.840;2023-11-22T08:46:23;20.90;;;10.45;;
45909;SDS011;31622;55.416;37.840;2023-11-22T08:48:49;20.77;;;10.57;;
45909;SDS011;31622;55.416;37.840;2023-11-22T08:51:16;19.33;;;10.52;;
45909;SDS011;31622;55.416;37.840;2023-11-22T08:53:43;16.73;;;9.65;;
45909;SDS011;31622;55.416;37.840;2023-11-22T08:56:10;15.50;;;9.80;;
45909;SDS011;31622;55.416;37.840;2023-11-22T08:58:37;21.63;;;10.30;;
45909;SDS011;31622;55.416;37.840;2023-11-22T09:01:04;19.35;;;10.30;;
45909;SDS011;31622;55.416;37.840;2023-11-22T09:03:30;16.48;;;9.32;;
45909;SDS011;31622;55.416;37.840;2023-11-22T09:05:58;14.82;;;8.30;;
45909;SDS011;31622;55.416;37.840;2023-11-22T09:08:23;13.10;;;8.23;;
45909;SDS011;31622;55.416;37.840;2023-11-22T09:10:49;14.27;;;8.00;;
45909;SDS011;31622;55.416;37.840;2023-11-22T09:13:16;12.98;;;8.52;;
45909;SDS011;31622;55.416;37.840;2023-11-22T09:15:42;16.83;;;8.90;;
45909;SDS011;31622;55.416;37.840;2023-11-22T09:18:13;14.82;;;8.13;;
45909;SDS011;31622;55.416;37.840;2023-11-22T09:20:39;13.38;;;7.78;;
45909;SDS011;31622;55.416;37.840;2023-11-22T09:23:09;12.77;;;8.02;;
45909;SDS011;31622;55.416;37.840;2023-11-22T09:25:35;13.75;;;7.55;;
45909;SDS011;31622;55.416;37.840;2023-11-22T09:28:02;11.15;;;6.75;;
45909;SDS011;31622;55.416;37.840;2023-11-22T09:30:31;12.48;;;6.88;;
45909;SDS011;31622;55.416;37.840;2023-11-22T09:33:08;11.27;;;6.80;;
45909;SDS011;31622;55.416;37.840;2023-11-22T09:35:36;10.65;;;6.43;;
45909;SDS011;31622;55.416;37.840;2023-11-22T09:38:05;12.25;;;6.30;;
45909;SDS011;31622;55.416;37.840;2023-11-22T09:40:40;8.35;;;5.28;;
45909;SDS011;31622;55.416;37.840;2023-11-22T09:43:07;9.00;;;5.45;;
45909;SDS011;31622;55.416;37.840;2023-11-22T09:45:32;9.20;;;5.15;;
45909;SDS011;31622;55.416;37.840;2023-11-22T09:47:59;8.45;;;5.20;;
45909;SDS011;31622;55.416;37.840;2023-11-22T09:50:43;8.23;;;4.93;;
45909;SDS011;31622;55.416;37.840;2023-11-22T09:53:34;8.02;;;5.10;;
45909;SDS011;31622;55.416;37.840;2023-11-22T09:56:03;8.93;;;4.60;;
45909;SDS011;31622;55.416;37.840;2023-11-22T09:58:31;7.80;;;4.75;;
45909;SDS011;31622;55.416;37.840;2023-11-22T10:01:01;5.82;;;4.00;;
45909;SDS011;31622;55.416;37.840;2023-11-22T10:03:29;7.25;;;4.13;;
45909;SDS011;31622;55.416;37.840;2023-11-22T10:05:58;6.72;;;3.80;;
45909;SDS011;31622;55.416;37.840;2023-11-22T10:08:27;6.45;;;4.18;;
45909;SDS011;31622;55.416;37.840;2023-11-22T10:10:56;6.72;;;3.92;;
45909;SDS011;31622;55.416;37.840;2023-11-22T10:13:22;6.80;;;3.42;;
45909;SDS011;31622;55.416;37.840;2023-11-22T10:15:48;8.02;;;3.88;;
45909;SDS011;31622;55.416;37.840;2023-11-22T10:18:14;6.40;;;3.38;;
45909;SDS011;31622;55.416;37.840;2023-11-22T10:20:41;6.68;;;3.92;;
45909;SDS011;31622;55.416;37.840;2023-11-22T10:23:08;6.25;;;3.40;;
45909;SDS011;31622;55.416;37.840;2023-11-22T10:25:45;4.63;;;3.15;;
45909;SDS011;31622;55.416;37.840;2023-11-22T10:28:15;9.32;;;3.88;;
45909;SDS011;31622;55.416;37.840;2023-11-22T10:30:43;5.38;;;3.03;;
45909;SDS011;31622;55.416;37.840;2023-11-22T10:33:10;6.13;;;2.80;;
45909;SDS011;31622;55.416;37.840;2023-11-22T10:35:43;5.85;;;3.00;;
45909;SDS011;31622;55.416;37.840;2023-11-22T10:38:09;6.10;;;2.97;;
45909;SDS011;31622;55.416;37.840;2023-11-22T10:40:36;5.20;;;2.78;;
45909;SDS011;31622;55.416;37.840;2023-11-22T10:43:02;4.90;;;2.90;;
45909;SDS011;31622;55.416;37.840;2023-11-22T10:45:29;4.68;;;2.80;;
45909;SDS011;31622;55.416;37.840;2023-11-22T10:48:00;4.57;;;2.90;;
45909;SDS011;31622;55.416;37.840;2023-11-22T10:50:26;4.10;;;2.35;;
45909;SDS011;31622;55.416;37.840;2023-11-22T10:52:53;5.80;;;2.53;;
45909;SDS011;31622;55.416;37.840;2023-11-22T10:55:26;5.57;;;2.47;;
45909;SDS011;31622;55.416;37.840;2023-11-22T10:57:54;3.88;;;2.53;;
45909;SDS011;31622;55.416;37.840;2023-11-22T11:00:20;3.53;;;2.47;;
45909;SDS011;31622;55.416;37.840;2023-11-22T11:02:58;3.53;;;2.10;;
45909;SDS011;31622;55.416;37.840;2023-11-22T11:05:30;3.85;;;2.42;;
45909;SDS011;31622;55.416;37.840;2023-11-22T11:08:00;3.38;;;2.28;;
45909;SDS011;31622;55.416;37.840;2023-11-22T11:10:43;4.30;;;2.10;;
45909;SDS011;31622;55.416;37.840;2023-11-22T11:13:10;5.07;;;2.30;;
45909;SDS011;31622;55.416;37.840;2023-11-22T11:15:40;4.72;;;2.58;;
45909;SDS011;31622;55.416;37.840;2023-11-22T11:18:09;3.60;;;2.30;;
45909;SDS011;31622;55.416;37.840;2023-11-22T11:20:49;4.38;;;2.20;;
45909;SDS011;31622;55.416;37.840;2023-11-22T11:23:28;5.60;;;1.98;;
45909;SDS011;31622;55.416;37.840;2023-11-22T11:25:54;4.10;;;2.53;;
45909;SDS011;31622;55.416;37.840;2023-11-22T11:28:21;3.97;;;2.00;;
45909;SDS011;31622;55.416;37.840;2023-11-22T11:30:50;3.40;;;2.08;;
45909;SDS011;31622;55.416;37.840;2023-11-22T11:33:19;4.20;;;2.22;;
45909;SDS011;31622;55.416;37.840;2023-11-22T11:35:48;4.25;;;2.25;;
45909;SDS011;31622;55.416;37.840;2023-11-22T11:38:15;3.97;;;1.85;;
45909;SDS011;31622;55.416;37.840;2023-11-22T11:40:51;4.63;;;2.22;;
45909;SDS011;31622;55.416;37.840;2023-11-22T11:46:07;3.97;;;1.92;;
45909;SDS011;31622;55.416;37.840;2023-11-22T11:48:36;3.75;;;1.83;;
45909;SDS011;31622;55.416;37.840;2023-11-22T11:51:02;3.30;;;1.80;;
45909;SDS011;31622;55.416;37.840;2023-11-22T11:53:27;3.78;;;1.85;;
45909;SDS011;31622;55.416;37.840;2023-11-22T11:55:56;5.30;;;1.80;;
45909;SDS011;31622;55.416;37.840;2023-11-22T11:58:22;4.43;;;1.80;;
45909;SDS011;31622;55.416;37.840;2023-11-22T12:00:50;3.67;;;1.85;;
45909;SDS011;31622;55.416;37.840;2023-11-22T12:03:18;3.80;;;2.40;;
45909;SDS011;31622;55.416;37.840;2023-11-22T12:05:46;4.13;;;1.95;;
45909;SDS011;31622;55.416;37.840;2023-11-22T12:08:14;3.58;;;1.50;;
45909;SDS011;31622;55.416;37.840;2023-11-22T12:10:41;3.78;;;1.70;;
45909;SDS011;31622;55.416;37.840;2023-11-22T12:13:07;4.88;;;2.22;;
45909;SDS011;31622;55.416;37.840;2023-11-22T12:15:33;3.97;;;1.70;;
45909;SDS011;31622;55.416;37.840;2023-11-22T12:18:00;2.20;;;1.40;;
45909;SDS011;31622;55.416;37.840;2023-11-22T12:20:27;3.25;;;1.73;;
45909;SDS011;31622;55.416;37.840;2023-11-22T12:22:59;3.50;;;1.70;;
45909;SDS011;31622;55.416;37.840;2023-11-22T12:25:29;3.47;;;1.60;;
45909;SDS011;31622;55.416;37.840;2023-11-22T12:27:55;3.35;;;1.88;;
45909;SDS011;31622;55.416;37.840;2023-11-22T12:30:28;2.42;;;1.48;;
45909;SDS011;31622;55.416;37.840;2023-11-22T12:32:55;2.83;;;1.60;;
45909;SDS011;31622;55.416;37.840;2023-11-22T12:35:21;2.15;;;1.40;;
45909;SDS011;31622;55.416;37.840;2023-11-22T12:37:48;2.03;;;1.40;;
45909;SDS011;31622;55.416;37.840;2023-11-22T12:40:14;3.83;;;1.42;;
45909;SDS011;31622;55.416;37.840;2023-11-22T12:42:52;2.80;;;1.50;;
45909;SDS011;31622;55.416;37.840;2023-11-22T12:45:25;3.60;;;1.38;;
45909;SDS011;31622;55.416;37.840;2023-11-22T12:47:53;2.63;;;1.42;;
45909;SDS011;31622;55.416;37.840;2023-11-22T12:50:29;3.13;;;1.23;;
45909;SDS011;31622;55.416;37.840;2023-11-22T12:53:09;4.28;;;1.73;;
45909;SDS011;31622;55.416;37.840;2023-11-22T12:55:41;2.63;;;1.38;;
45909;SDS011;31622;55.416;37.840;2023-11-22T12:58:12;3.22;;;1.38;;
45909;SDS011;31622;55.416;37.840;2023-11-22T13:00:38;3.17;;;1.30;;
45909;SDS011;31622;55.416;37.840;2023-11-22T13:03:07;2.20;;;1.25;;
45909;SDS011;31622;55.416;37.840;2023-11-22T13:05:42;2.97;;;1.30;;
45909;SDS011;31622;55.416;37.840;2023-11-22T13:08:09;3.05;;;1.13;;
45909;SDS011;31622;55.416;37.840;2023-11-22T13:10:39;2.08;;;1.38;;
45909;SDS011;31622;55.416;37.840;2023-11-22T13:13:05;2.65;;;1.13;;
45909;SDS011;31622;55.416;37.840;2023-11-22T13:15:34;2.95;;;1.42;;
45909;SDS011;31622;55.416;37.840;2023-11-22T13:18:00;2.95;;;1.35;;
45909;SDS011;31622;55.416;37.840;2023-11-22T13:20:26;3.28;;;1.80;;
45909;SDS011;31622;55.416;37.840;2023-11-22T13:22:53;2.13;;;1.08;;
45909;SDS011;31622;55.416;37.840;2023-11-22T13:25:19;2.38;;;1.35;;
45909;SDS011;31622;55.416;37.840;2023-11-22T13:27:46;2.65;;;1.23;;
45909;SDS011;31622;55.416;37.840;2023-11-22T13:30:16;2.70;;;1.30;;
45909;SDS011;31622;55.416;37.840;2023-11-22T13:32:54;2.60;;;1.30;;
45909;SDS011;31622;55.416;37.840;2023-11-22T13:35:24;3.67;;;1.50;;
45909;SDS011;31622;55.416;37.840;2023-11-22T13:37:59;2.75;;;1.40;;
45909;SDS011;31622;55.416;37.840;2023-11-22T13:40:27;3.85;;;1.52;;
45909;SDS011;31622;55.416;37.840;2023-11-22T13:42:56;3.33;;;1.50;;
45909;SDS011;31622;55.416;37.840;2023-11-22T13:45:22;2.35;;;1.30;;
45909;SDS011;31622;55.416;37.840;2023-11-22T13:47:49;2.03;;;1.30;;
45909;SDS011;31622;55.416;37.840;2023-11-22T13:50:18;4.38;;;1.60;;
45909;SDS011;31622;55.416;37.840;2023-11-22T13:52:44;2.85;;;1.50;;
45909;SDS011;31622;55.416;37.840;2023-11-22T13:55:13;2.45;;;1.45;;
45909;SDS011;31622;55.416;37.840;2023-11-22T13:57:41;3.30;;;1.40;;
45909;SDS011;31622;55.416;37.840;2023-11-22T14:00:08;2.83;;;1.45;;
45909;SDS011;31622;55.416;37.840;2023-11-22T14:02:36;3.47;;;1.80;;
45909;SDS011;31622;55.416;37.840;2023-11-22T14:05:02;3.13;;;1.70;;
45909;SDS011;31622;55.416;37.840;2023-11-22T14:07:35;3.00;;;1.60;;
45909;SDS011;31622;55.416;37.840;2023-11-22T14:10:03;3.10;;;1.83;;
45909;SDS011;31622;55.416;37.840;2023-11-22T14:12:31;3.38;;;2.05;;
45909;SDS011;31622;55.416;37.840;2023-11-22T14:14:57;3.65;;;1.95;;
45909;SDS011;31622;55.416;37.840;2023-11-22T14:17:24;7.00;;;2.10;;
45909;SDS011;31622;55.416;37.840;2023-11-22T14:19:51;4.82;;;2.15;;
45909;SDS011;31622;55.416;37.840;2023-11-22T14:22:20;6.68;;;2.00;;
45909;SDS011;31622;55.416;37.840;2023-11-22T14:24:47;3.60;;;2.35;;
45909;SDS011;31622;55.416;37.840;2023-11-22T14:27:14;5.18;;;2.20;;
45909;SDS011;31622;55.416;37.840;2023-11-22T14:29:40;5.70;;;2.20;;
45909;SDS011;31622;55.416;37.840;2023-11-22T14:32:07;4.00;;;2.58;;
45909;SDS011;31622;55.416;37.840;2023-11-22T14:34:33;4.50;;;2.58;;
45909;SDS011;31622;55.416;37.840;2023-11-22T14:36:59;7.55;;;2.67;;
45909;SDS011;31622;55.416;37.840;2023-11-22T14:39:25;5.07;;;2.53;;